sensor_id;sensor_type;location;lat;lon;timestamp;pressure;altitude;pressure_sealevel;temperature;humidity
56038;BME280;41907;47.848;9.000;2023-05-28T00:00:32;95857.31;;;14.00;76.32
56038;BME280;41907;47.848;9.000;2023-05-28T00:02:58;95853.06;;;13.99;76.14
56038;BME280;41907;47.848;9.000;2023-05-28T00:05:24;95842.97;;;13.75;76.95
56038;BME280;41907;47.848;9.000;2023-05-28T00:07:49;95849.38;;;13.83;77.63
56038;BME280;41907;47.848;9.000;2023-05-28T00:10:15;95845.47;;;13.80;77.29
56038;BME280;41907;47.848;9.000;2023-05-28T00:12:40;95839.81;;;13.73;76.97
56038;BME280;41907;47.848;9.000;2023-05-28T00:15:05;95846.88;;;13.57;77.22
56038;BME280;41907;47.848;9.000;2023-05-28T00:17:31;95841.63;;;13.60;77.63
56038;BME280;41907;47.848;9.000;2023-05-28T00:19:56;95828.59;;;13.50;77.22
56038;BME280;41907;47.848;9.000;2023-05-28T00:22:22;95836.63;;;13.50;77.19
56038;BME280;41907;47.848;9.000;2023-05-28T00:24:47;95829.25;;;13.47;77.96
56038;BME280;41907;47.848;9.000;2023-05-28T00:27:12;95822.50;;;13.41;78.86
56038;BME280;41907;47.848;9.000;2023-05-28T00:29:37;95820.47;;;13.38;78.87
56038;BME280;41907;47.848;9.000;2023-05-28T00:32:02;95819.06;;;13.32;78.82
56038;BME280;41907;47.848;9.000;2023-05-28T00:34:28;95817.84;;;13.29;78.40
56038;BME280;41907;47.848;9.000;2023-05-28T00:36:53;95812.47;;;13.29;78.98
56038;BME280;41907;47.848;9.000;2023-05-28T00:39:18;95817.06;;;13.29;79.04
56038;BME280;41907;47.848;9.000;2023-05-28T00:41:44;95814.38;;;13.29;78.71
56038;BME280;41907;47.848;9.000;2023-05-28T00:44:09;95808.06;;;13.25;79.30
56038;BME280;41907;47.848;9.000;2023-05-28T00:46:35;95807.47;;;13.19;78.96
56038;BME280;41907;47.848;9.000;2023-05-28T00:49:01;95806.38;;;13.20;79.76
56038;BME280;41907;47.848;9.000;2023-05-28T00:51:27;95802.91;;;13.20;79.14
56038;BME280;41907;47.848;9.000;2023-05-28T00:53:52;95802.88;;;13.28;79.48
56038;BME280;41907;47.848;9.000;2023-05-28T00:56:18;95799.88;;;13.21;79.11
56038;BME280;41907;47.848;9.000;2023-05-28T00:58:43;95803.34;;;13.30;79.12
56038;BME280;41907;47.848;9.000;2023-05-28T01:01:09;95806.34;;;13.29;78.97
56038;BME280;41907;47.848;9.000;2023-05-28T01:03:35;95800.41;;;13.15;78.94
56038;BME280;41907;47.848;9.000;2023-05-28T01:06:03;95796.78;;;13.11;79.55
56038;BME280;41907;47.848;9.000;2023-05-28T01:08:29;95790.97;;;13.09;79.60
56038;BME280;41907;47.848;9.000;2023-05-28T01:10:54;95788.91;;;13.05;81.76
56038;BME280;41907;47.848;9.000;2023-05-28T01:13:20;95791.19;;;12.86;81.12
56038;BME280;41907;47.848;9.000;2023-05-28T01:15:45;95796.84;;;12.85;83.37
56038;BME280;41907;47.848;9.000;2023-05-28T01:18:10;95790.91;;;12.79;85.45
56038;BME280;41907;47.848;9.000;2023-05-28T01:20:36;95788.38;;;12.74;86.83
56038;BME280;41907;47.848;9.000;2023-05-28T01:23:05;95782.09;;;12.79;86.62
56038;BME280;41907;47.848;9.000;2023-05-28T01:25:31;95777.25;;;12.63;87.36
56038;BME280;41907;47.848;9.000;2023-05-28T01:27:58;95780.56;;;12.60;88.28
56038;BME280;41907;47.848;9.000;2023-05-28T01:30:26;95774.44;;;12.60;87.93
56038;BME280;41907;47.848;9.000;2023-05-28T01:32:51;95775.72;;;12.54;88.26
56038;BME280;41907;47.848;9.000;2023-05-28T01:35:16;95776.34;;;12.42;89.25
56038;BME280;41907;47.848;9.000;2023-05-28T01:37:49;95775.09;;;12.40;90.31
56038;BME280;41907;47.848;9.000;2023-05-28T01:40:16;95772.13;;;12.33;90.44
56038;BME280;41907;47.848;9.000;2023-05-28T01:42:42;95769.75;;;12.31;90.46
56038;BME280;41907;47.848;9.000;2023-05-28T01:45:09;95768.97;;;12.30;89.83
56038;BME280;41907;47.848;9.000;2023-05-28T01:47:35;95765.19;;;12.32;87.62
56038;BME280;41907;47.848;9.000;2023-05-28T01:50:01;95763.00;;;12.34;86.91
56038;BME280;41907;47.848;9.000;2023-05-28T01:52:27;95759.22;;;12.35;85.50
56038;BME280;41907;47.848;9.000;2023-05-28T01:54:52;95758.09;;;12.44;84.04
56038;BME280;41907;47.848;9.000;2023-05-28T01:57:17;95755.88;;;12.46;84.01
56038;BME280;41907;47.848;9.000;2023-05-28T01:59:42;95755.56;;;12.48;83.85
56038;BME280;41907;47.848;9.000;2023-05-28T02:02:08;95756.50;;;12.52;83.56
56038;BME280;41907;47.848;9.000;2023-05-28T02:04:33;95755.22;;;12.58;82.20
56038;BME280;41907;47.848;9.000;2023-05-28T02:06:58;95751.09;;;12.69;81.38
56038;BME280;41907;47.848;9.000;2023-05-28T02:09:24;95748.72;;;12.76;81.03
56038;BME280;41907;47.848;9.000;2023-05-28T02:11:49;95751.53;;;12.80;80.79
56038;BME280;41907;47.848;9.000;2023-05-28T02:14:14;95750.13;;;12.82;80.27
56038;BME280;41907;47.848;9.000;2023-05-28T02:16:49;95746.78;;;12.85;79.82
56038;BME280;41907;47.848;9.000;2023-05-28T02:19:17;95750.72;;;12.88;80.48
56038;BME280;41907;47.848;9.000;2023-05-28T02:21:42;95747.25;;;12.87;79.48
56038;BME280;41907;47.848;9.000;2023-05-28T02:24:08;95755.88;;;12.93;79.25
56038;BME280;41907;47.848;9.000;2023-05-28T02:26:33;95745.97;;;12.93;79.38
56038;BME280;41907;47.848;9.000;2023-05-28T02:28:58;95750.22;;;12.94;78.92
56038;BME280;41907;47.848;9.000;2023-05-28T02:31:23;95746.75;;;12.94;78.94
56038;BME280;41907;47.848;9.000;2023-05-28T02:33:49;95751.19;;;12.90;79.30
56038;BME280;41907;47.848;9.000;2023-05-28T02:36:14;95744.56;;;12.87;79.32
56038;BME280;41907;47.848;9.000;2023-05-28T02:38:40;95751.34;;;12.85;79.49
56038;BME280;41907;47.848;9.000;2023-05-28T02:41:05;95747.56;;;12.86;79.29
56038;BME280;41907;47.848;9.000;2023-05-28T02:43:31;95747.44;;;12.82;79.50
56038;BME280;41907;47.848;9.000;2023-05-28T02:45:56;95750.44;;;12.81;79.66
56038;BME280;41907;47.848;9.000;2023-05-28T02:48:21;95749.69;;;12.72;80.16
56038;BME280;41907;47.848;9.000;2023-05-28T02:50:46;95759.13;;;12.69;80.12
56038;BME280;41907;47.848;9.000;2023-05-28T02:53:12;95757.28;;;12.61;80.50
56038;BME280;41907;47.848;9.000;2023-05-28T02:55:37;95764.50;;;12.60;80.63
56038;BME280;41907;47.848;9.000;2023-05-28T02:58:02;95765.28;;;12.61;81.01
56038;BME280;41907;47.848;9.000;2023-05-28T03:00:28;95752.84;;;12.56;80.81
56038;BME280;41907;47.848;9.000;2023-05-28T03:02:53;95759.34;;;12.47;81.73
56038;BME280;41907;47.848;9.000;2023-05-28T03:05:19;95759.81;;;12.49;82.18
56038;BME280;41907;47.848;9.000;2023-05-28T03:07:44;95756.34;;;12.48;81.59
56038;BME280;41907;47.848;9.000;2023-05-28T03:10:09;95757.75;;;12.46;81.53
56038;BME280;41907;47.848;9.000;2023-05-28T03:12:34;95755.25;;;12.41;81.55
56038;BME280;41907;47.848;9.000;2023-05-28T03:15:01;95755.75;;;12.43;80.94
56038;BME280;41907;47.848;9.000;2023-05-28T03:17:26;95753.53;;;12.45;81.60
56038;BME280;41907;47.848;9.000;2023-05-28T03:19:51;95759.81;;;12.49;81.57
56038;BME280;41907;47.848;9.000;2023-05-28T03:22:17;95762.00;;;12.55;82.36
56038;BME280;41907;47.848;9.000;2023-05-28T03:24:42;95767.53;;;12.50;82.58
56038;BME280;41907;47.848;9.000;2023-05-28T03:27:07;95762.34;;;12.37;81.16
56038;BME280;41907;47.848;9.000;2023-05-28T03:29:32;95763.28;;;12.41;83.04
56038;BME280;41907;47.848;9.000;2023-05-28T03:31:57;95764.38;;;12.40;83.41
56038;BME280;41907;47.848;9.000;2023-05-28T03:34:23;95763.13;;;12.37;82.19
56038;BME280;41907;47.848;9.000;2023-05-28T03:36:48;95761.25;;;12.29;82.50
56038;BME280;41907;47.848;9.000;2023-05-28T03:39:14;95770.53;;;12.32;82.57
56038;BME280;41907;47.848;9.000;2023-05-28T03:41:39;95771.19;;;12.20;81.99
56038;BME280;41907;47.848;9.000;2023-05-28T03:44:04;95770.41;;;12.19;82.73
56038;BME280;41907;47.848;9.000;2023-05-28T03:46:30;95766.16;;;12.18;81.66
56038;BME280;41907;47.848;9.000;2023-05-28T03:48:55;95773.22;;;12.23;81.90
56038;BME280;41907;47.848;9.000;2023-05-28T03:51:21;95780.28;;;12.27;81.50
56038;BME280;41907;47.848;9.000;2023-05-28T03:53:46;95772.44;;;12.22;81.28
56038;BME280;41907;47.848;9.000;2023-05-28T03:56:12;95769.59;;;12.19;80.44
56038;BME280;41907;47.848;9.000;2023-05-28T03:58:37;95780.28;;;12.27;80.47
56038;BME280;41907;47.848;9.000;2023-05-28T04:01:02;95777.78;;;12.31;80.71
56038;BME280;41907;47.848;9.000;2023-05-28T04:03:27;95772.59;;;12.35;79.49
56038;BME280;41907;47.848;9.000;2023-05-28T04:05:53;95784.22;;;12.39;78.92
56038;BME280;41907;47.848;9.000;2023-05-28T04:08:18;95777.59;;;12.53;80.10
56038;BME280;41907;47.848;9.000;2023-05-28T04:10:43;95782.13;;;12.61;79.03
56038;BME280;41907;47.848;9.000;2023-05-28T04:13:09;95776.16;;;12.56;79.50
56038;BME280;41907;47.848;9.000;2023-05-28T04:15:34;95779.75;;;12.68;78.03
56038;BME280;41907;47.848;9.000;2023-05-28T04:17:59;95787.44;;;12.79;76.97
56038;BME280;41907;47.848;9.000;2023-05-28T04:20:25;95783.56;;;13.44;75.61
56038;BME280;41907;47.848;9.000;2023-05-28T04:22:50;95786.63;;;13.84;71.13
56038;BME280;41907;47.848;9.000;2023-05-28T04:25:16;95788.72;;;14.40;68.58
56038;BME280;41907;47.848;9.000;2023-05-28T04:27:43;95784.19;;;15.35;64.94
56038;BME280;41907;47.848;9.000;2023-05-28T04:30:09;95790.88;;;15.77;60.41
56038;BME280;41907;47.848;9.000;2023-05-28T04:32:34;95797.19;;;16.21;58.44
56038;BME280;41907;47.848;9.000;2023-05-28T04:35:00;95788.41;;;16.52;56.66
56038;BME280;41907;47.848;9.000;2023-05-28T04:37:28;95791.81;;;17.56;53.34
56038;BME280;41907;47.848;9.000;2023-05-28T04:39:54;95797.31;;;18.29;50.75
56038;BME280;41907;47.848;9.000;2023-05-28T04:42:19;95814.00;;;18.54;49.57
56038;BME280;41907;47.848;9.000;2023-05-28T04:44:44;95808.91;;;18.49;48.75
56038;BME280;41907;47.848;9.000;2023-05-28T04:47:10;95812.50;;;19.18;47.65
56038;BME280;41907;47.848;9.000;2023-05-28T04:49:36;95814.72;;;19.35;46.12
56038;BME280;41907;47.848;9.000;2023-05-28T04:52:02;95812.16;;;19.65;45.15
56038;BME280;41907;47.848;9.000;2023-05-28T04:54:27;95809.59;;;20.02;44.44
56038;BME280;41907;47.848;9.000;2023-05-28T04:56:52;95819.13;;;20.19;44.38
56038;BME280;41907;47.848;9.000;2023-05-28T04:59:17;95809.81;;;20.46;43.11
56038;BME280;41907;47.848;9.000;2023-05-28T05:01:43;95804.97;;;20.32;43.71
56038;BME280;41907;47.848;9.000;2023-05-28T05:04:08;95815.53;;;20.71;42.52
56038;BME280;41907;47.848;9.000;2023-05-28T05:06:34;95809.56;;;21.29;40.94
56038;BME280;41907;47.848;9.000;2023-05-28T05:08:59;95821.22;;;21.33;40.85
56038;BME280;41907;47.848;9.000;2023-05-28T05:11:25;95823.59;;;21.85;40.33
56038;BME280;41907;47.848;9.000;2023-05-28T05:13:51;95817.97;;;22.19;39.15
56038;BME280;41907;47.848;9.000;2023-05-28T05:16:16;95808.34;;;21.70;39.63
56038;BME280;41907;47.848;9.000;2023-05-28T05:18:42;95813.34;;;22.16;39.04
56038;BME280;41907;47.848;9.000;2023-05-28T05:21:07;95817.44;;;22.64;38.13
56038;BME280;41907;47.848;9.000;2023-05-28T05:23:35;95808.75;;;22.31;38.29
56038;BME280;41907;47.848;9.000;2023-05-28T05:26:00;95815.06;;;22.59;37.88
56038;BME280;41907;47.848;9.000;2023-05-28T05:28:25;95815.25;;;23.06;37.40
56038;BME280;41907;47.848;9.000;2023-05-28T05:30:51;95813.34;;;23.34;36.90
56038;BME280;41907;47.848;9.000;2023-05-28T05:33:16;95814.53;;;23.48;36.57
56038;BME280;41907;47.848;9.000;2023-05-28T05:35:41;95806.72;;;24.10;35.82
56038;BME280;41907;47.848;9.000;2023-05-28T05:38:06;95809.84;;;24.23;35.14
56038;BME280;41907;47.848;9.000;2023-05-28T05:40:32;95810.16;;;24.35;34.90
56038;BME280;41907;47.848;9.000;2023-05-28T05:42:57;95815.63;;;24.42;35.08
56038;BME280;41907;47.848;9.000;2023-05-28T05:45:22;95818.78;;;24.13;35.35
56038;BME280;41907;47.848;9.000;2023-05-28T05:47:48;95817.63;;;24.14;35.01
56038;BME280;41907;47.848;9.000;2023-05-28T05:50:13;95812.38;;;24.72;35.14
56038;BME280;41907;47.848;9.000;2023-05-28T05:52:38;95814.78;;;25.33;34.21
56038;BME280;41907;47.848;9.000;2023-05-28T05:55:05;95811.66;;;24.54;34.70
56038;BME280;41907;47.848;9.000;2023-05-28T05:57:31;95810.34;;;24.98;34.25
56038;BME280;41907;47.848;9.000;2023-05-28T05:59:57;95810.97;;;25.23;34.35
56038;BME280;41907;47.848;9.000;2023-05-28T06:02:22;95821.06;;;25.81;34.54
56038;BME280;41907;47.848;9.000;2023-05-28T06:04:47;95816.97;;;25.00;33.46
56038;BME280;41907;47.848;9.000;2023-05-28T06:07:13;95824.66;;;25.16;33.84
56038;BME280;41907;47.848;9.000;2023-05-28T06:09:38;95825.72;;;24.53;34.61
56038;BME280;41907;47.848;9.000;2023-05-28T06:12:03;95822.81;;;24.95;34.79
56038;BME280;41907;47.848;9.000;2023-05-28T06:14:29;95823.38;;;24.47;34.99
56038;BME280;41907;47.848;9.000;2023-05-28T06:16:54;95832.44;;;23.49;36.55
56038;BME280;41907;47.848;9.000;2023-05-28T06:19:19;95823.50;;;23.69;36.28
56038;BME280;41907;47.848;9.000;2023-05-28T06:21:46;95826.09;;;22.91;38.29
56038;BME280;41907;47.848;9.000;2023-05-28T06:24:11;95823.44;;;23.23;38.32
56038;BME280;41907;47.848;9.000;2023-05-28T06:26:36;95823.88;;;23.86;37.76
56038;BME280;41907;47.848;9.000;2023-05-28T06:29:01;95828.44;;;22.93;38.51
56038;BME280;41907;47.848;9.000;2023-05-28T06:31:27;95821.81;;;22.90;38.80
56038;BME280;41907;47.848;9.000;2023-05-28T06:33:52;95821.44;;;23.02;39.02
56038;BME280;41907;47.848;9.000;2023-05-28T06:36:17;95820.25;;;21.55;41.81
56038;BME280;41907;47.848;9.000;2023-05-28T06:38:43;95818.78;;;22.23;40.76
56038;BME280;41907;47.848;9.000;2023-05-28T06:41:08;95816.56;;;22.46;40.17
56038;BME280;41907;47.848;9.000;2023-05-28T06:43:33;95826.53;;;23.11;40.55
56038;BME280;41907;47.848;9.000;2023-05-28T06:45:58;95817.59;;;23.32;39.25
56038;BME280;41907;47.848;9.000;2023-05-28T06:48:24;95816.97;;;22.45;40.35
56038;BME280;41907;47.848;9.000;2023-05-28T06:50:49;95805.94;;;22.13;41.70
56038;BME280;41907;47.848;9.000;2023-05-28T06:53:14;95806.34;;;22.18;42.01
56038;BME280;41907;47.848;9.000;2023-05-28T06:55:40;95805.69;;;21.81;41.88
56038;BME280;41907;47.848;9.000;2023-05-28T06:58:05;95805.22;;;21.68;43.23
56038;BME280;41907;47.848;9.000;2023-05-28T07:00:30;95801.50;;;21.90;42.95
56038;BME280;41907;47.848;9.000;2023-05-28T07:02:56;95804.84;;;22.24;42.41
56038;BME280;41907;47.848;9.000;2023-05-28T07:05:21;95804.38;;;22.12;42.19
56038;BME280;41907;47.848;9.000;2023-05-28T07:07:46;95807.19;;;22.26;41.75
56038;BME280;41907;47.848;9.000;2023-05-28T07:10:12;95796.44;;;22.61;43.37
56038;BME280;41907;47.848;9.000;2023-05-28T07:12:37;95798.88;;;22.84;43.03
56038;BME280;41907;47.848;9.000;2023-05-28T07:15:03;95802.41;;;22.92;40.93
56038;BME280;41907;47.848;9.000;2023-05-28T07:17:29;95805.75;;;22.60;40.19
56038;BME280;41907;47.848;9.000;2023-05-28T07:19:54;95805.66;;;22.32;41.91
56038;BME280;41907;47.848;9.000;2023-05-28T07:22:19;95805.28;;;22.37;41.52
56038;BME280;41907;47.848;9.000;2023-05-28T07:24:45;95804.88;;;22.39;41.68
56038;BME280;41907;47.848;9.000;2023-05-28T07:27:10;95799.88;;;22.44;41.23
56038;BME280;41907;47.848;9.000;2023-05-28T07:29:35;95800.47;;;23.07;41.11
56038;BME280;41907;47.848;9.000;2023-05-28T07:32:01;95801.28;;;23.32;40.30
56038;BME280;41907;47.848;9.000;2023-05-28T07:34:26;95805.16;;;23.17;38.68
56038;BME280;41907;47.848;9.000;2023-05-28T07:36:51;95810.41;;;22.53;40.03
56038;BME280;41907;47.848;9.000;2023-05-28T07:39:16;95805.53;;;22.07;40.97
56038;BME280;41907;47.848;9.000;2023-05-28T07:41:41;95797.78;;;22.13;41.04
56038;BME280;41907;47.848;9.000;2023-05-28T07:44:07;95804.91;;;22.42;41.50
56038;BME280;41907;47.848;9.000;2023-05-28T07:46:32;95801.19;;;22.79;40.42
56038;BME280;41907;47.848;9.000;2023-05-28T07:48:57;95787.13;;;22.62;41.04
56038;BME280;41907;47.848;9.000;2023-05-28T07:51:23;95797.56;;;22.50;40.48
56038;BME280;41907;47.848;9.000;2023-05-28T07:53:48;95790.47;;;22.27;41.16
56038;BME280;41907;47.848;9.000;2023-05-28T07:56:13;95792.44;;;22.31;42.10
56038;BME280;41907;47.848;9.000;2023-05-28T07:58:41;95783.31;;;22.78;39.91
56038;BME280;41907;47.848;9.000;2023-05-28T08:01:07;95786.50;;;23.01;39.50
56038;BME280;41907;47.848;9.000;2023-05-28T08:03:34;95784.53;;;22.98;39.53
56038;BME280;41907;47.848;9.000;2023-05-28T08:05:59;95778.28;;;22.80;39.43
56038;BME280;41907;47.848;9.000;2023-05-28T08:08:25;95779.75;;;22.63;39.64
56038;BME280;41907;47.848;9.000;2023-05-28T08:10:50;95775.63;;;23.26;42.04
56038;BME280;41907;47.848;9.000;2023-05-28T08:13:15;95776.03;;;23.21;38.06
56038;BME280;41907;47.848;9.000;2023-05-28T08:15:40;95790.41;;;23.32;38.27
56038;BME280;41907;47.848;9.000;2023-05-28T08:18:06;95781.84;;;23.19;39.00
56038;BME280;41907;47.848;9.000;2023-05-28T08:20:31;95781.03;;;22.83;38.31
56038;BME280;41907;47.848;9.000;2023-05-28T08:22:56;95787.09;;;22.55;40.48
56038;BME280;41907;47.848;9.000;2023-05-28T08:25:21;95776.72;;;22.79;38.95
56038;BME280;41907;47.848;9.000;2023-05-28T08:27:47;95775.50;;;22.69;40.39
56038;BME280;41907;47.848;9.000;2023-05-28T08:30:13;95776.22;;;22.55;41.55
56038;BME280;41907;47.848;9.000;2023-05-28T08:32:38;95771.25;;;22.75;39.50
56038;BME280;41907;47.848;9.000;2023-05-28T08:35:03;95784.13;;;23.03;39.79
56038;BME280;41907;47.848;9.000;2023-05-28T08:37:29;95771.59;;;22.63;39.21
56038;BME280;41907;47.848;9.000;2023-05-28T08:39:54;95770.78;;;22.55;39.52
56038;BME280;41907;47.848;9.000;2023-05-28T08:42:20;95775.09;;;22.60;39.67
56038;BME280;41907;47.848;9.000;2023-05-28T08:44:45;95770.00;;;22.44;40.33
56038;BME280;41907;47.848;9.000;2023-05-28T08:47:11;95767.81;;;22.96;39.69
56038;BME280;41907;47.848;9.000;2023-05-28T08:49:47;95770.88;;;22.84;40.32
56038;BME280;41907;47.848;9.000;2023-05-28T08:52:15;95756.56;;;22.97;39.73
56038;BME280;41907;47.848;9.000;2023-05-28T08:54:43;95760.09;;;23.30;39.04
56038;BME280;41907;47.848;9.000;2023-05-28T08:57:09;95750.78;;;23.56;39.01
56038;BME280;41907;47.848;9.000;2023-05-28T08:59:34;95760.91;;;23.59;38.66
56038;BME280;41907;47.848;9.000;2023-05-28T09:02:00;95756.59;;;23.51;38.13
56038;BME280;41907;47.848;9.000;2023-05-28T09:04:27;95744.91;;;23.22;39.16
56038;BME280;41907;47.848;9.000;2023-05-28T09:06:52;95756.19;;;23.45;39.83
56038;BME280;41907;47.848;9.000;2023-05-28T09:09:18;95746.84;;;23.82;40.53
56038;BME280;41907;47.848;9.000;2023-05-28T09:11:44;95745.25;;;23.98;38.60
56038;BME280;41907;47.848;9.000;2023-05-28T09:14:11;95747.50;;;24.18;39.00
56038;BME280;41907;47.848;9.000;2023-05-28T09:16:39;95748.94;;;24.54;37.12
56038;BME280;41907;47.848;9.000;2023-05-28T09:19:05;95752.97;;;25.05;37.22
56038;BME280;41907;47.848;9.000;2023-05-28T09:21:30;95755.59;;;24.50;36.54
56038;BME280;41907;47.848;9.000;2023-05-28T09:23:57;95746.56;;;24.67;36.55
56038;BME280;41907;47.848;9.000;2023-05-28T09:26:23;95744.50;;;24.89;37.14
56038;BME280;41907;47.848;9.000;2023-05-28T09:28:49;95747.00;;;24.55;36.14
56038;BME280;41907;47.848;9.000;2023-05-28T09:31:16;95745.47;;;24.50;37.16
56038;BME280;41907;47.848;9.000;2023-05-28T09:33:44;95745.19;;;24.16;36.66
56038;BME280;41907;47.848;9.000;2023-05-28T09:36:10;95752.56;;;24.30;37.00
56038;BME280;41907;47.848;9.000;2023-05-28T09:38:39;95747.44;;;24.46;35.75
56038;BME280;41907;47.848;9.000;2023-05-28T09:41:05;95741.75;;;24.89;35.19
56038;BME280;41907;47.848;9.000;2023-05-28T09:43:30;95749.53;;;24.94;35.37
56038;BME280;41907;47.848;9.000;2023-05-28T09:46:08;95742.63;;;24.75;34.31
56038;BME280;41907;47.848;9.000;2023-05-28T09:48:33;95744.19;;;25.31;36.73
56038;BME280;41907;47.848;9.000;2023-05-28T09:50:59;95745.22;;;25.00;34.10
56038;BME280;41907;47.848;9.000;2023-05-28T09:53:25;95747.50;;;24.28;35.74
56038;BME280;41907;47.848;9.000;2023-05-28T09:55:51;95754.91;;;24.31;35.83
56038;BME280;41907;47.848;9.000;2023-05-28T09:58:16;95737.38;;;24.18;35.51
56038;BME280;41907;47.848;9.000;2023-05-28T10:00:43;95742.50;;;24.02;35.42
56038;BME280;41907;47.848;9.000;2023-05-28T10:05:38;95747.72;;;24.69;35.37
56038;BME280;41907;47.848;9.000;2023-05-28T10:08:05;95743.50;;;24.58;34.21
56038;BME280;41907;47.848;9.000;2023-05-28T10:10:30;95743.63;;;24.29;36.35
56038;BME280;41907;47.848;9.000;2023-05-28T10:12:57;95746.66;;;24.45;34.74
56038;BME280;41907;47.848;9.000;2023-05-28T10:15:22;95742.84;;;24.25;34.74
56038;BME280;41907;47.848;9.000;2023-05-28T10:17:48;95745.16;;;24.34;36.33
56038;BME280;41907;47.848;9.000;2023-05-28T10:20:14;95736.91;;;24.48;34.66
56038;BME280;41907;47.848;9.000;2023-05-28T10:22:39;95750.63;;;24.34;35.23
56038;BME280;41907;47.848;9.000;2023-05-28T10:25:06;95744.78;;;24.28;35.51
56038;BME280;41907;47.848;9.000;2023-05-28T10:27:33;95747.53;;;24.14;35.56
56038;BME280;41907;47.848;9.000;2023-05-28T10:30:02;95737.88;;;23.92;34.96
56038;BME280;41907;47.848;9.000;2023-05-28T10:32:28;95738.59;;;24.06;36.05
56038;BME280;41907;47.848;9.000;2023-05-28T10:35:00;95739.28;;;24.42;36.68
56038;BME280;41907;47.848;9.000;2023-05-28T10:37:27;95739.88;;;24.75;35.56
56038;BME280;41907;47.848;9.000;2023-05-28T10:39:52;95737.94;;;24.75;35.73
56038;BME280;41907;47.848;9.000;2023-05-28T10:42:18;95730.31;;;25.11;36.41
56038;BME280;41907;47.848;9.000;2023-05-28T10:47:35;95730.81;;;24.96;35.88
56038;BME280;41907;47.848;9.000;2023-05-28T10:52:32;95734.34;;;25.44;34.82
56038;BME280;41907;47.848;9.000;2023-05-28T10:54:57;95732.50;;;25.34;34.76
56038;BME280;41907;47.848;9.000;2023-05-28T10:57:27;95732.59;;;25.20;35.77
56038;BME280;41907;47.848;9.000;2023-05-28T11:00:03;95723.91;;;25.36;36.05
56038;BME280;41907;47.848;9.000;2023-05-28T11:02:36;95720.34;;;24.87;35.62
56038;BME280;41907;47.848;9.000;2023-05-28T11:05:02;95720.41;;;25.32;37.25
56038;BME280;41907;47.848;9.000;2023-05-28T11:07:32;95720.56;;;25.62;35.16
56038;BME280;41907;47.848;9.000;2023-05-28T11:09:57;95721.97;;;25.77;36.71
56038;BME280;41907;47.848;9.000;2023-05-28T11:12:27;95715.19;;;25.92;35.06
56038;BME280;41907;47.848;9.000;2023-05-28T11:14:52;95714.66;;;25.67;35.40
56038;BME280;41907;47.848;9.000;2023-05-28T11:17:18;95711.22;;;25.60;35.88
56038;BME280;41907;47.848;9.000;2023-05-28T11:22:09;95707.22;;;25.71;35.74
56038;BME280;41907;47.848;9.000;2023-05-28T11:27:20;95712.56;;;25.82;36.37
56038;BME280;41907;47.848;9.000;2023-05-28T11:29:45;95712.84;;;25.50;36.10
56038;BME280;41907;47.848;9.000;2023-05-28T11:32:11;95712.13;;;24.91;35.63
56038;BME280;41907;47.848;9.000;2023-05-28T11:34:36;95710.47;;;25.07;36.10
56038;BME280;41907;47.848;9.000;2023-05-28T11:37:02;95706.66;;;25.46;35.67
56038;BME280;41907;47.848;9.000;2023-05-28T11:39:30;95714.69;;;25.64;36.32
56038;BME280;41907;47.848;9.000;2023-05-28T11:41:55;95710.78;;;25.65;35.46
56038;BME280;41907;47.848;9.000;2023-05-28T11:44:20;95708.34;;;25.74;34.47
56038;BME280;41907;47.848;9.000;2023-05-28T11:46:49;95703.84;;;25.94;35.11
56038;BME280;41907;47.848;9.000;2023-05-28T11:49:14;95704.91;;;26.04;33.86
56038;BME280;41907;47.848;9.000;2023-05-28T11:51:39;95707.59;;;25.73;32.89
56038;BME280;41907;47.848;9.000;2023-05-28T11:54:05;95706.38;;;25.33;33.77
56038;BME280;41907;47.848;9.000;2023-05-28T11:56:30;95704.50;;;25.23;35.68
56038;BME280;41907;47.848;9.000;2023-05-28T11:58:58;95695.97;;;25.17;34.83
56038;BME280;41907;47.848;9.000;2023-05-28T12:01:24;95691.25;;;25.21;36.91
56038;BME280;41907;47.848;9.000;2023-05-28T12:03:49;95692.63;;;25.44;36.08
56038;BME280;41907;47.848;9.000;2023-05-28T12:06:14;95693.69;;;25.53;38.04
56038;BME280;41907;47.848;9.000;2023-05-28T12:08:40;95696.44;;;25.53;33.95
56038;BME280;41907;47.848;9.000;2023-05-28T12:11:07;95696.06;;;25.51;35.92
56038;BME280;41907;47.848;9.000;2023-05-28T12:13:33;95684.31;;;25.54;35.60
56038;BME280;41907;47.848;9.000;2023-05-28T12:16:05;95687.19;;;25.40;34.54
56038;BME280;41907;47.848;9.000;2023-05-28T12:18:30;95689.03;;;25.09;35.71
56038;BME280;41907;47.848;9.000;2023-05-28T12:20:57;95683.88;;;25.18;34.80
56038;BME280;41907;47.848;9.000;2023-05-28T12:23:22;95685.38;;;25.23;34.52
56038;BME280;41907;47.848;9.000;2023-05-28T12:25:48;95681.19;;;25.11;35.07
56038;BME280;41907;47.848;9.000;2023-05-28T12:28:15;95673.78;;;25.12;35.45
56038;BME280;41907;47.848;9.000;2023-05-28T12:30:41;95677.78;;;25.00;35.29
56038;BME280;41907;47.848;9.000;2023-05-28T12:33:07;95683.75;;;24.77;35.45
56038;BME280;41907;47.848;9.000;2023-05-28T12:35:33;95673.97;;;24.83;35.74
56038;BME280;41907;47.848;9.000;2023-05-28T12:37:58;95680.59;;;24.86;34.51
56038;BME280;41907;47.848;9.000;2023-05-28T12:40:23;95666.16;;;24.85;35.16
56038;BME280;41907;47.848;9.000;2023-05-28T12:42:49;95670.44;;;24.87;36.82
56038;BME280;41907;47.848;9.000;2023-05-28T12:45:14;95660.78;;;24.75;35.70
56038;BME280;41907;47.848;9.000;2023-05-28T12:47:39;95672.78;;;24.84;36.38
56038;BME280;41907;47.848;9.000;2023-05-28T12:50:05;95653.69;;;24.88;37.72
56038;BME280;41907;47.848;9.000;2023-05-28T12:52:30;95653.28;;;24.90;36.57
56038;BME280;41907;47.848;9.000;2023-05-28T12:54:58;95653.94;;;25.08;36.89
56038;BME280;41907;47.848;9.000;2023-05-28T12:57:23;95649.06;;;25.30;35.10
56038;BME280;41907;47.848;9.000;2023-05-28T12:59:49;95647.97;;;25.20;34.83
56038;BME280;41907;47.848;9.000;2023-05-28T13:02:14;95639.47;;;25.11;36.36
56038;BME280;41907;47.848;9.000;2023-05-28T13:04:39;95644.22;;;25.07;37.07